foto1
foto1
foto1
foto1
foto1


Bienvenue sur le site de l'Aéroclub Dassault Breguet Biarritz

Actualités:

METAR LFBZ

LFBZ 211930Z AUTO 28010KT 9999 OVC012 13/12 Q1029 NOSIG

TAF LFBZ

TAF LFBZ 211700Z 2118/2218 27010KT 9999 BKN010 PROB30 TEMPO 2122/2206 3000 -RADZ BKN005 TEMPO 2212/2218 3000 -RA BKN005

Accès Membres

Réserver un avion

Pour réserver un avion cliquer sur le logo Openflyers

logo openflyers

Flux RSS

Aerobuzz

Actualité et information aéronautique